This is the latest recevied weather packets stored in our database for station/object CQ0XPG-11. If no packets are shown the sender has not sent any weather packets the latest 10 day(s).
| Time | Temp. | Humidity | Pressure | Rain* | Wind** | Luminosity | Snow |
|---|---|---|---|---|---|---|---|
| 1778242769 | 16.11° C | 57% | 999.8 hPa | 0.25 mm | - | - | - |
| 1778242443 | 16.67° C | 55% | 999.8 hPa | 0.25 mm | - | - | - |
| 1778242170 | 16.67° C | 53% | 999.8 hPa | 0.25 mm | - | - | - |
| 1778241836 | 17.22° C | 54% | 999.8 hPa | 0.25 mm | - | - | - |
| 1778241542 | 17.22° C | 53% | 999.9 hPa | 0.25 mm | - | - | - |
| 1778241249 | 16.67° C | 54% | 1000 hPa | 0.25 mm | - | - | - |
| 1778240930 | 16.11° C | 55% | 1000 hPa | 0.25 mm | - | - | - |
| 1778240623 | 16.11° C | 57% | 1000.1 hPa | 0.25 mm | - | - | - |
| 1778240342 | 16.11° C | 60% | 1000.1 hPa | 0.25 mm | - | - | - |
| 1778240017 | 16.11° C | 61% | 1000.3 hPa | 0.25 mm | - | - | - |
| 1778239723 | 16.11° C | 62% | 1000.3 hPa | 0.25 mm | - | - | - |
| 1778239432 | 15.56° C | 63% | 1000.4 hPa | 0.25 mm | - | - | - |
| 1778239117 | 15.56° C | 61% | 1000.5 hPa | 0.25 mm | - | - | - |
| 1778238811 | 15.56° C | 63% | 1000.5 hPa | 0.25 mm | - | - | - |
| 1778238526 | 15.56° C | 62% | 1000.5 hPa | 0.25 mm | - | - | - |
| 1778238191 | 16.11° C | 61% | 1000.6 hPa | 0.25 mm | - | - | - |
| 1778237909 | 15.56° C | 65% | 1000.7 hPa | 0.25 mm | - | - | - |
| 1778237616 | 15.56° C | 70% | 1000.7 hPa | 0 mm | - | - | - |
| 1778237298 | 14.44° C | 74% | 1000.7 hPa | 0 mm | - | - | - |
| 1778236994 | 14.44° C | 71% | 1000.8 hPa | 0 mm | - | - | - |
| 1778236721 | 15° C | 71% | 1000.9 hPa | 0 mm | - | - | - |
| 1778236378 | 15° C | 69% | 1000.9 hPa | 0 mm | - | - | - |
| 1778236107 | 15.56° C | 65% | 1000.8 hPa | 0 mm | - | - | - |
| 1778235481 | 14.44° C | 80% | 1001 hPa | 0 mm | - | - | - |
| 1778235165 | 14.44° C | 75% | 1001 hPa | 0 mm | - | - | - |
* Rain since midnight (hover to see other rain measurements)
** Current wind speed in m/s (hover to see current wind gust speed)